| time (UTC) | temp C | wind direction | speed KPH | gust KPH | rain 1hr cm | rain 24hr cm | rain mn cm | humidity % | barometer mb |
| 20260507203640 | 16 | 267 | 0.0 | 11.3 | 0.00 | 0.84 | 0.66 | 48 | 1004.0 |
| 20260507190340 | 20 | 78 | 3.2 | 9.7 | 0.00 | 0.84 | 0.66 | 42 | 1004.8 |
| 20260507183240 | 20 | 75 | 0.0 | 11.3 | 0.00 | 0.84 | 0.66 | 42 | 1005.1 |
| 20260507180140 | 19 | 340 | 14.5 | 14.5 | 0.00 | 0.84 | 0.66 | 38 | 1005.3 |
| 20260507173041 | 18 | 15 | 3.2 | 16.1 | 0.00 | 0.84 | 0.66 | 43 | 1005.3 |
| 20260507145540 | 14 | 171 | 4.8 | 11.3 | 0.00 | 0.84 | 0.66 | 59 | 1006.9 |
| 20260507142440 | 13 | 310 | 0.0 | 12.9 | 0.00 | 0.84 | 0.66 | 61 | 1007.0 |
| 20260507114941 | 8 | 181 | 0.0 | 0.0 | 0.13 | 0.84 | 0.66 | 89 | 1007.0 |
| 20260507104741 | 8 | 303 | 1.6 | 6.4 | 0.05 | 0.71 | 0.53 | 88 | 1006.8 |
| 20260507101641 | 10 | 344 | 8.0 | 8.0 | 0.05 | 0.69 | 0.51 | 89 | 1006.8 |
| 20260507091441 | 11 | 2 | 3.2 | 9.7 | 0.30 | 0.64 | 0.46 | 90 | 1006.1 |
| 20260507081241 | 12 | 322 | 0.0 | 8.0 | 0.15 | 0.33 | 0.15 | 87 | 1006.0 |
| 20260507071041 | 13 | 347 | 1.6 | 8.0 | 0.00 | 0.18 | 0.00 | 90 | 1004.9 |
| 20260507063941 | 13 | 5 | 0.0 | 0.0 | 0.00 | 0.18 | 0.00 | 91 | 1005.1 |
| 20260507060841 | 13 | 215 | 0.0 | 4.8 | 0.00 | 0.18 | 0.00 | 92 | 1005.1 |
| 20260507050641 | 12 | 185 | 1.6 | 6.4 | 0.00 | 0.18 | 0.00 | 92 | 1005.6 |
| 20260507043541 | 13 | 195 | 1.6 | 6.4 | 0.00 | 0.18 | 0.28 | 91 | 1005.3 |
| 20260507040442 | 13 | 251 | 3.2 | 9.7 | 0.00 | 0.18 | 0.28 | 91 | 1005.4 |
| 20260507033342 | 13 | 182 | 3.2 | 12.9 | 0.00 | 0.18 | 0.28 | 92 | 1005.5 |
| 20260507030242 | 13 | 205 | 6.4 | 22.5 | 0.00 | 0.18 | 0.28 | 91 | 1005.2 |
| 20260507023142 | 13 | 227 | 4.8 | 14.5 | 0.00 | 0.18 | 0.28 | 91 | 1005.0 |
| 20260507020042 | 13 | 170 | 11.3 | 12.9 | 0.00 | 0.18 | 0.28 | 91 | 1005.4 |
| 20260507005842 | 13 | 208 | 9.7 | 12.9 | 0.05 | 0.18 | 0.28 | 91 | 1005.6 |
| 20260507002742 | 13 | 192 | 8.0 | 14.5 | 0.05 | 0.15 | 0.25 | 90 | 1005.7 |
| 20260506235642 | 13 | 201 | 9.7 | 14.5 | 0.05 | 0.13 | 0.23 | 90 | 1005.5 |
| 20260506232542 | 13 | 206 | 8.0 | 20.9 | 0.08 | 0.10 | 0.20 | 88 | 1005.8 |
| 20260506222342 | 14 | 149 | 3.2 | 9.7 | 0.03 | 0.03 | 0.13 | 85 | 1006.3 |
| 20260506215218 | 15 | 192 | 17.7 | 17.7 | 0.33 | 0.33 | 0.10 | 84 | 1004.2 |